createdAt,value
2018-02-03T00:00:49.261Z,3.10
2018-02-03T00:03:17.551Z,3.10
2018-02-03T00:05:45.053Z,3.00
2018-02-03T00:08:12.547Z,3.10
2018-02-03T00:10:40.850Z,3.00
2018-02-03T00:13:08.383Z,3.00
2018-02-03T00:15:36.665Z,3.00
2018-02-03T00:18:04.936Z,3.00
2018-02-03T00:20:33.226Z,3.00
2018-02-03T00:23:00.730Z,3.00
2018-02-03T00:25:28.275Z,3.10
2018-02-03T00:27:55.768Z,3.00
2018-02-03T00:30:23.356Z,3.00
2018-02-03T00:32:50.849Z,2.90
2018-02-03T00:35:18.350Z,2.90
2018-02-03T00:37:46.636Z,2.90
2018-02-03T00:40:14.911Z,2.90
2018-02-03T00:42:43.208Z,2.90
2018-02-03T00:45:10.702Z,2.90
2018-02-03T00:47:38.203Z,2.90
2018-02-03T00:50:06.477Z,2.90
2018-02-03T00:52:34.788Z,2.90
2018-02-03T00:55:02.296Z,2.90
2018-02-03T00:57:29.798Z,2.90
2018-02-03T00:59:57.315Z,2.90
2018-02-03T01:02:24.829Z,3.00
2018-02-03T01:04:52.330Z,2.90
2018-02-03T01:07:19.846Z,3.00
2018-02-03T01:09:47.359Z,2.90
2018-02-03T01:12:15.618Z,2.90
2018-02-03T01:14:43.148Z,2.80
2018-02-03T01:17:10.650Z,2.90
2018-02-03T01:19:38.940Z,2.80
2018-02-03T01:22:07.211Z,2.80
2018-02-03T01:24:35.483Z,2.70
2018-02-03T01:27:03.769Z,2.70
2018-02-03T01:29:32.048Z,2.70
2018-02-03T01:31:59.556Z,2.70
2018-02-03T01:34:27.091Z,2.70
2018-02-03T01:36:54.589Z,2.70
2018-02-03T01:39:22.115Z,2.70
2018-02-03T01:41:49.636Z,2.80
2018-02-03T01:44:17.168Z,2.80
2018-02-03T01:46:44.691Z,2.70
2018-02-03T01:49:12.220Z,2.70
2018-02-03T01:51:39.709Z,2.70
2018-02-03T01:54:07.201Z,2.70
2018-02-03T01:56:34.736Z,2.70
2018-02-03T01:59:02.236Z,2.70
2018-02-03T02:01:30.536Z,2.70
2018-02-03T02:03:58.054Z,2.70
2018-02-03T02:06:26.340Z,2.70
2018-02-03T02:08:54.632Z,2.70
2018-02-03T02:11:22.137Z,2.70
2018-02-03T02:13:49.629Z,2.70
2018-02-03T02:16:17.917Z,2.70
2018-02-03T02:18:46.196Z,2.70
2018-02-03T02:21:14.480Z,2.70
2018-02-03T02:23:41.988Z,2.60
2018-02-03T02:26:09.510Z,2.70
2018-02-03T02:28:37.001Z,2.70
2018-02-03T02:31:04.515Z,2.60
2018-02-03T02:33:32.021Z,2.50
2018-02-03T02:35:59.514Z,2.60
2018-02-03T02:38:27.815Z,2.50
2018-02-03T02:40:55.324Z,2.50
2018-02-03T02:43:22.837Z,2.60
2018-02-03T02:45:50.366Z,2.60
2018-02-03T02:48:18.639Z,2.70
2018-02-03T02:50:46.939Z,2.70
2018-02-03T02:53:14.448Z,2.60
2018-02-03T02:55:41.955Z,2.60
2018-02-03T02:58:09.476Z,2.50
2018-02-03T03:00:36.965Z,2.60
2018-02-03T03:03:04.486Z,2.60
2018-02-03T03:05:31.982Z,2.50
2018-02-03T03:07:59.500Z,2.40
2018-02-03T03:10:27.027Z,2.40
2018-02-03T03:12:54.526Z,2.40
2018-02-03T03:15:22.017Z,2.40
2018-02-03T03:17:49.556Z,2.60
2018-02-03T03:20:17.818Z,2.50
2018-02-03T03:22:45.337Z,2.40
2018-02-03T03:25:12.849Z,2.40
2018-02-03T03:27:41.134Z,2.40
2018-02-03T03:30:08.644Z,2.40
2018-02-03T03:32:36.157Z,2.40
2018-02-03T03:35:03.679Z,2.40
2018-02-03T03:37:31.192Z,2.40
2018-02-03T03:39:58.725Z,2.40
2018-02-03T03:42:26.996Z,2.30
2018-02-03T03:44:55.263Z,2.30
2018-02-03T03:47:23.559Z,2.20
2018-02-03T03:49:51.056Z,2.20
2018-02-03T03:52:18.575Z,2.20
2018-02-03T03:54:46.075Z,2.20
2018-02-03T03:57:13.605Z,2.10
2018-02-03T03:59:41.116Z,2.10
2018-02-03T04:02:08.643Z,2.10
2018-02-03T04:04:36.133Z,2.10
2018-02-03T04:07:03.630Z,2.10
2018-02-03T04:09:31.165Z,2.10
2018-02-03T04:11:59.448Z,2.20
2018-02-03T04:14:27.719Z,2.20
2018-02-03T04:16:55.993Z,2.20
2018-02-03T04:19:24.272Z,2.10
2018-02-03T04:21:52.533Z,2.10
2018-02-03T04:24:20.066Z,2.00
2018-02-03T04:26:47.563Z,2.10
2018-02-03T04:29:15.895Z,2.00
2018-02-03T04:31:43.394Z,2.10
2018-02-03T04:34:11.654Z,2.10
2018-02-03T04:36:39.180Z,2.10
2018-02-03T04:39:06.691Z,2.00
2018-02-03T04:41:34.973Z,2.10
2018-02-03T04:44:03.237Z,2.10
2018-02-03T04:46:31.516Z,2.00
2018-02-03T04:48:59.798Z,2.00
2018-02-03T04:51:28.081Z,2.10
2018-02-03T04:53:55.612Z,2.00
2018-02-03T04:56:23.106Z,2.10
2018-02-03T04:58:50.610Z,2.00
2018-02-03T05:01:18.282Z,2.00
2018-02-03T05:03:45.800Z,1.90
2018-02-03T05:06:13.323Z,1.90
2018-02-03T05:08:41.582Z,1.80
2018-02-03T05:11:09.103Z,1.80
2018-02-03T05:13:36.602Z,1.90
2018-02-03T05:16:04.111Z,1.80
2018-02-03T05:18:31.631Z,1.80
2018-02-03T05:20:59.899Z,1.70
2018-02-03T05:23:27.428Z,1.70
2018-02-03T05:25:54.930Z,1.70
2018-02-03T05:28:23.203Z,1.80
2018-02-03T05:30:51.486Z,1.70
2018-02-03T05:33:18.997Z,1.70
2018-02-03T05:35:46.509Z,1.70
2018-02-03T05:38:14.012Z,1.70
2018-02-03T05:40:41.530Z,1.60
2018-02-03T05:43:09.046Z,1.60
2018-02-03T05:45:36.567Z,1.70
2018-02-03T05:48:04.060Z,1.70
2018-02-03T05:50:31.573Z,1.80
2018-02-03T05:52:59.084Z,1.80
2018-02-03T05:55:26.607Z,1.80
2018-02-03T05:57:54.109Z,1.70
2018-02-03T06:00:22.413Z,1.70
2018-02-03T06:02:49.910Z,1.70
2018-02-03T06:05:17.425Z,1.80
2018-02-03T06:07:44.937Z,1.80
2018-02-03T06:10:12.439Z,1.70
2018-02-03T06:12:39.968Z,1.70
2018-02-03T06:15:07.473Z,1.70
2018-02-03T06:17:34.993Z,1.70
2018-02-03T06:20:03.273Z,1.80
2018-02-03T06:22:31.549Z,1.90
2018-02-03T06:24:59.816Z,2.00
2018-02-03T06:27:27.334Z,2.00
2018-02-03T06:29:54.844Z,1.80
2018-02-03T06:32:23.108Z,1.70
2018-02-03T06:34:50.625Z,1.70
2018-02-03T06:37:18.128Z,1.80
2018-02-03T06:39:46.413Z,1.60
2018-02-03T06:42:14.669Z,1.70
2018-02-03T06:44:42.167Z,1.70
2018-02-03T06:47:09.692Z,1.80
2018-02-03T06:49:37.196Z,1.80
2018-02-03T06:52:04.735Z,2.00
2018-02-03T06:54:32.226Z,1.90
2018-02-03T06:56:59.728Z,1.90
2018-02-03T06:59:28.018Z,1.60
2018-02-03T07:01:56.286Z,1.80
2018-02-03T07:04:24.570Z,1.60
2018-02-03T07:06:52.832Z,1.70
2018-02-03T07:09:21.089Z,1.80
2018-02-03T07:11:48.623Z,1.80
2018-02-03T07:14:16.137Z,1.70
2018-02-03T07:16:44.437Z,1.80
2018-02-03T07:19:11.936Z,1.80
2018-02-03T07:21:39.433Z,1.70
2018-02-03T07:24:07.717Z,1.70
2018-02-03T07:26:35.206Z,1.60
2018-02-03T07:29:02.726Z,1.60
2018-02-03T07:31:30.217Z,1.60
2018-02-03T07:33:57.748Z,1.60
2018-02-03T07:36:25.241Z,1.70
2018-02-03T07:38:54.668Z,1.80
2018-02-03T07:41:22.186Z,1.70
2018-02-03T07:43:49.679Z,1.80
2018-02-03T07:46:17.207Z,1.80
2018-02-03T07:48:44.715Z,1.70
2018-02-03T07:51:12.251Z,1.70
2018-02-03T07:53:39.754Z,1.80
2018-02-03T07:56:08.014Z,2.00
2018-02-03T07:58:36.308Z,1.90
2018-02-03T08:01:03.798Z,1.90
2018-02-03T08:03:31.329Z,1.90
2018-02-03T08:05:58.839Z,1.90
2018-02-03T08:08:26.358Z,2.00
2018-02-03T08:10:53.877Z,1.90
2018-02-03T08:13:21.393Z,1.90
2018-02-03T08:15:48.881Z,1.90
2018-02-03T08:18:16.374Z,2.00
2018-02-03T08:20:43.896Z,2.00
2018-02-03T08:23:11.400Z,2.00
2018-02-03T08:25:38.979Z,2.10
2018-02-03T08:28:07.309Z,2.00
2018-02-03T08:30:35.615Z,2.10
2018-02-03T08:33:03.109Z,2.10
2018-02-03T08:35:30.601Z,2.10
2018-02-03T08:37:58.877Z,2.20
2018-02-03T08:40:27.137Z,2.30
2018-02-03T08:42:54.717Z,2.30
2018-02-03T08:45:22.189Z,2.20
2018-02-03T08:47:50.493Z,2.20
2018-02-03T08:50:18.005Z,2.20
2018-02-03T08:52:46.266Z,2.30
2018-02-03T08:55:13.787Z,2.20
2018-02-03T08:57:41.316Z,2.30
2018-02-03T09:00:09.624Z,2.40
2018-02-03T09:02:37.137Z,2.30
2018-02-03T09:05:05.440Z,2.30
2018-02-03T09:07:32.951Z,2.30
2018-02-03T09:10:00.468Z,2.30
2018-02-03T09:12:27.957Z,2.30
2018-02-03T09:14:55.480Z,2.30
2018-02-03T09:17:22.988Z,2.40
2018-02-03T09:19:50.514Z,2.40
2018-02-03T09:22:18.024Z,2.40
2018-02-03T09:24:46.310Z,2.40
2018-02-03T09:27:14.565Z,2.50
2018-02-03T09:29:42.062Z,2.40
2018-02-03T09:32:09.582Z,2.50
2018-02-03T09:34:37.908Z,2.50
2018-02-03T09:37:05.434Z,2.50
2018-02-03T09:39:33.708Z,2.50
2018-02-03T09:42:02.012Z,2.60
2018-02-03T09:44:29.538Z,2.50
2018-02-03T09:46:57.843Z,2.60
2018-02-03T09:49:25.372Z,2.50
2018-02-03T09:51:53.642Z,2.60
2018-02-03T09:54:21.947Z,2.60
2018-02-03T09:56:49.465Z,2.60
2018-02-03T09:59:16.976Z,2.70
2018-02-03T10:01:44.525Z,2.80
2018-02-03T10:04:12.035Z,2.70
2018-02-03T10:06:39.567Z,2.80
2018-02-03T10:09:07.073Z,2.90
2018-02-03T10:11:35.356Z,2.70
2018-02-03T10:14:03.661Z,2.80
2018-02-03T10:16:31.173Z,2.80
2018-02-03T10:18:59.462Z,2.80
2018-02-03T10:21:27.726Z,2.80
2018-02-03T10:23:56.023Z,2.90
2018-02-03T10:26:24.296Z,3.00
2018-02-03T10:28:52.576Z,2.90
2018-02-03T10:31:20.875Z,3.00
2018-02-03T10:33:48.392Z,3.00
2018-02-03T10:36:16.696Z,3.00
2018-02-03T10:38:44.198Z,3.00
2018-02-03T10:41:11.719Z,3.00
2018-02-03T10:43:39.235Z,3.00
2018-02-03T10:46:06.774Z,2.90
2018-02-03T10:48:34.284Z,2.90
2018-02-03T10:51:01.777Z,2.90
2018-02-03T10:53:29.303Z,3.00
2018-02-03T10:55:56.836Z,2.90
2018-02-03T10:58:24.339Z,3.00
2018-02-03T11:00:51.870Z,3.00
2018-02-03T11:03:20.125Z,3.10
2018-02-03T11:05:47.637Z,3.10
2018-02-03T11:08:15.170Z,3.20
2018-02-03T11:10:42.693Z,3.10
2018-02-03T11:13:10.228Z,3.10
2018-02-03T11:15:37.735Z,3.30
2018-02-03T11:18:06.027Z,3.30
2018-02-03T11:20:33.525Z,3.30
2018-02-03T11:23:01.079Z,3.30
2018-02-03T11:25:28.579Z,3.30
2018-02-03T11:27:56.846Z,3.20
2018-02-03T11:30:24.375Z,3.20
2018-02-03T11:32:51.874Z,3.30
2018-02-03T11:35:20.166Z,3.30
2018-02-03T11:37:47.673Z,3.30
2018-02-03T11:40:15.201Z,3.40
2018-02-03T11:42:42.707Z,3.40
2018-02-03T11:45:10.207Z,3.50
2018-02-03T11:47:37.748Z,3.60
2018-02-03T11:50:06.006Z,3.70
2018-02-03T11:52:33.540Z,3.70
2018-02-03T11:55:01.039Z,3.70
2018-02-03T11:57:29.345Z,3.60
2018-02-03T11:59:56.864Z,3.60
2018-02-03T12:02:24.358Z,3.60
2018-02-03T12:04:51.878Z,3.60
2018-02-03T12:07:19.370Z,3.70
2018-02-03T12:09:46.917Z,3.70
2018-02-03T12:12:14.448Z,3.80
2018-02-03T12:14:41.984Z,3.70
2018-02-03T12:17:09.483Z,3.70
2018-02-03T12:19:37.764Z,3.70
2018-02-03T12:22:06.041Z,3.80
2018-02-03T12:24:34.326Z,3.80
2018-02-03T12:27:02.764Z,3.80
2018-02-03T12:29:30.259Z,3.70
2018-02-03T12:31:57.805Z,3.80
2018-02-03T12:34:26.089Z,3.80
2018-02-03T12:36:54.396Z,3.80
2018-02-03T12:39:21.905Z,3.80
2018-02-03T12:41:49.398Z,3.70
2018-02-03T12:44:16.911Z,3.80
2018-02-03T12:46:44.411Z,3.80
2018-02-03T12:49:11.936Z,3.80
2018-02-03T12:51:40.236Z,3.80
2018-02-03T12:54:07.773Z,3.80
2018-02-03T12:56:35.272Z,3.80
2018-02-03T12:59:02.812Z,3.90
2018-02-03T13:01:30.306Z,4.00
2018-02-03T13:03:57.836Z,4.00
2018-02-03T13:06:25.324Z,4.00
2018-02-03T13:08:52.837Z,4.10
2018-02-03T13:11:21.132Z,4.10
2018-02-03T13:13:48.632Z,4.10
2018-02-03T13:16:16.163Z,4.20
2018-02-03T13:18:43.673Z,4.20
2018-02-03T13:21:11.204Z,4.20
2018-02-03T13:23:38.716Z,4.20
2018-02-03T13:26:06.239Z,4.20
2018-02-03T13:28:33.734Z,4.20
2018-02-03T13:31:01.247Z,4.20
2018-02-03T13:33:28.780Z,4.20
2018-02-03T13:35:56.270Z,4.20
2018-02-03T13:38:23.792Z,4.10
2018-02-03T13:40:51.287Z,4.10
2018-02-03T13:43:18.827Z,4.20
2018-02-03T13:45:46.326Z,4.10
2018-02-03T13:48:14.625Z,4.20
2018-02-03T13:50:42.136Z,4.10
2018-02-03T13:53:09.668Z,4.10
2018-02-03T13:55:37.180Z,4.10
2018-02-03T13:58:05.475Z,4.10
2018-02-03T14:00:32.983Z,4.10
2018-02-03T14:03:00.507Z,4.00
2018-02-03T14:05:28.007Z,4.00
2018-02-03T14:07:55.530Z,4.00
2018-02-03T14:10:23.018Z,4.00
2018-02-03T14:12:50.554Z,4.00
2018-02-03T14:15:18.064Z,4.00
2018-02-03T14:17:46.369Z,4.00
2018-02-03T14:20:13.867Z,4.00
2018-02-03T14:22:41.415Z,4.00
2018-02-03T14:25:11.370Z,4.00
2018-02-03T14:27:39.653Z,3.90
2018-02-03T14:30:07.934Z,4.00
2018-02-03T14:32:35.454Z,4.00
2018-02-03T14:35:02.974Z,4.00
2018-02-03T14:37:30.484Z,4.00
2018-02-03T14:39:58.002Z,4.00
2018-02-03T14:42:25.524Z,4.00
2018-02-03T14:44:53.066Z,4.00
2018-02-03T14:47:21.333Z,4.00
2018-02-03T14:49:48.886Z,4.00
2018-02-03T14:52:16.404Z,4.00
2018-02-03T14:54:43.917Z,4.00
2018-02-03T14:57:12.191Z,3.80
2018-02-03T14:59:40.481Z,3.80
2018-02-03T15:02:08.761Z,3.80
2018-02-03T15:04:37.082Z,3.90
2018-02-03T15:07:04.590Z,3.90
2018-02-03T15:09:32.900Z,3.80
2018-02-03T15:12:00.405Z,3.80
2018-02-03T15:14:27.941Z,3.80
2018-02-03T15:16:55.446Z,3.70
2018-02-03T15:19:23.740Z,3.50
2018-02-03T15:21:51.243Z,3.50
2018-02-03T15:24:18.756Z,3.40
2018-02-03T15:26:46.298Z,3.40
2018-02-03T15:29:14.580Z,3.50
2018-02-03T15:31:42.120Z,3.50
2018-02-03T15:34:10.387Z,3.50
2018-02-03T15:36:37.909Z,3.50
2018-02-03T15:39:05.419Z,3.40
2018-02-03T15:41:33.727Z,3.30
2018-02-03T15:44:01.248Z,3.30
2018-02-03T15:46:29.549Z,3.40
2018-02-03T15:48:57.085Z,3.40
2018-02-03T15:51:25.397Z,3.20
2018-02-03T15:53:52.917Z,3.20
2018-02-03T15:56:21.210Z,3.30
2018-02-03T15:58:49.474Z,3.40
2018-02-03T16:01:17.767Z,3.30
2018-02-03T16:03:45.286Z,3.30
2018-02-03T16:06:12.812Z,3.20
2018-02-03T16:08:40.336Z,3.20
2018-02-03T16:11:08.624Z,3.20
2018-02-03T16:13:36.136Z,3.20
2018-02-03T16:16:03.667Z,3.20
2018-02-03T16:18:31.170Z,3.30
2018-02-03T16:20:58.691Z,3.40
2018-02-03T16:23:26.191Z,3.30
2018-02-03T16:25:54.473Z,3.40
2018-02-03T16:28:22.762Z,3.30
2018-02-03T16:30:50.274Z,3.20
2018-02-03T16:33:17.799Z,3.20
2018-02-03T16:35:45.298Z,3.20
2018-02-03T16:38:12.833Z,3.10
2018-02-03T16:40:40.353Z,3.20
2018-02-03T16:43:07.888Z,3.10
2018-02-03T16:45:36.189Z,3.10
2018-02-03T16:48:03.724Z,3.10
2018-02-03T16:50:31.241Z,3.00
2018-02-03T16:52:58.775Z,3.00
2018-02-03T16:55:26.287Z,3.00
2018-02-03T16:57:53.815Z,3.00
2018-02-03T17:00:21.357Z,2.90
2018-02-03T17:02:48.896Z,2.90
2018-02-03T17:05:17.174Z,2.90
2018-02-03T17:07:44.713Z,2.90
2018-02-03T17:10:13.005Z,3.00
2018-02-03T17:12:41.308Z,3.10
2018-02-03T17:15:08.811Z,3.00
2018-02-03T17:17:36.330Z,3.00
2018-02-03T17:20:03.826Z,2.90
2018-02-03T17:22:31.349Z,3.00
2018-02-03T17:24:58.870Z,3.00
2018-02-03T17:27:27.132Z,3.00
2018-02-03T17:29:55.436Z,3.00
2018-02-03T17:32:22.936Z,3.00
2018-02-03T17:34:50.458Z,3.10
2018-02-03T17:37:23.704Z,3.00
2018-02-03T17:39:51.237Z,2.80
2018-02-03T17:42:18.748Z,2.70
2018-02-03T17:44:47.053Z,2.50
2018-02-03T17:47:14.567Z,2.50
2018-02-03T17:49:42.103Z,2.50
2018-02-03T17:52:09.610Z,2.40
2018-02-03T17:54:37.135Z,2.30
2018-02-03T17:57:10.419Z,2.30
2018-02-03T17:59:37.937Z,2.30
2018-02-03T18:02:05.478Z,2.30
2018-02-03T18:04:33.019Z,2.30
2018-02-03T18:07:05.204Z,2.20
2018-02-03T18:09:32.739Z,2.10
2018-02-03T18:12:01.006Z,2.20
2018-02-03T18:14:28.505Z,2.10
2018-02-03T18:16:56.039Z,2.10
2018-02-03T18:19:24.311Z,2.20
2018-02-03T18:21:52.608Z,2.20
2018-02-03T18:24:20.126Z,2.20
2018-02-03T18:26:47.649Z,2.30
2018-02-03T18:29:15.147Z,2.30
2018-02-03T18:31:42.680Z,2.30
2018-02-03T18:34:10.187Z,2.30
2018-02-03T18:36:38.481Z,2.30
2018-02-03T18:39:05.983Z,2.30
2018-02-03T18:41:33.503Z,2.20
2018-02-03T18:44:01.007Z,2.20
2018-02-03T18:46:28.549Z,2.20
2018-02-03T18:48:56.836Z,2.10
2018-02-03T18:51:24.333Z,2.10
2018-02-03T18:53:52.636Z,2.10
2018-02-03T18:56:20.134Z,2.10
2018-02-03T18:58:47.663Z,2.10
2018-02-03T19:01:15.166Z,2.10
2018-02-03T19:03:42.733Z,2.10
2018-02-03T19:06:11.007Z,2.20
2018-02-03T19:08:39.300Z,2.10
2018-02-03T19:11:06.795Z,2.10
2018-02-03T19:13:34.329Z,2.10
2018-02-03T19:16:01.830Z,2.20
2018-02-03T19:18:29.346Z,2.20
2018-02-03T19:20:56.874Z,2.20
2018-02-03T19:23:25.156Z,2.20
2018-02-03T19:25:53.458Z,2.20
2018-02-03T19:28:20.961Z,2.20
2018-02-03T19:30:48.476Z,2.20
2018-02-03T19:33:16.017Z,2.20
2018-02-03T19:35:44.301Z,2.20
2018-02-03T19:38:11.859Z,2.20
2018-02-03T19:40:39.381Z,2.10
2018-02-03T19:43:06.892Z,2.10
2018-02-03T19:45:34.440Z,2.10
2018-02-03T19:48:01.947Z,2.10
2018-02-03T19:50:29.496Z,2.10
2018-02-03T19:52:56.993Z,2.00
2018-02-03T19:55:25.249Z,2.10
2018-02-03T19:57:52.784Z,2.10
2018-02-03T20:00:20.303Z,2.10
2018-02-03T20:02:47.834Z,2.20
2018-02-03T20:05:16.110Z,2.20
2018-02-03T20:07:43.643Z,2.10
2018-02-03T20:10:11.142Z,2.20
2018-02-03T20:12:38.671Z,2.20
2018-02-03T20:15:06.188Z,2.20
2018-02-03T20:17:33.699Z,2.30
2018-02-03T20:20:01.230Z,2.40
2018-02-03T20:22:28.728Z,2.40
2018-02-03T20:24:57.232Z,2.00
2018-02-03T20:27:24.747Z,2.00
2018-02-03T20:29:52.266Z,1.90
2018-02-03T20:32:19.775Z,1.90
2018-02-03T20:34:48.057Z,1.80
2018-02-03T20:37:15.600Z,1.70
2018-02-03T20:39:43.094Z,1.50
2018-02-03T20:42:10.637Z,1.30
2018-02-03T20:44:38.919Z,1.10
2018-02-03T20:47:07.201Z,1.10
2018-02-03T20:49:34.740Z,1.10
2018-02-03T20:52:03.009Z,1.20
2018-02-03T20:54:30.544Z,1.10
2018-02-03T20:56:58.078Z,1.10
2018-02-03T20:59:25.604Z,1.00
2018-02-03T21:01:53.887Z,1.00
2018-02-03T21:04:21.382Z,0.90
2018-02-03T21:06:48.913Z,1.00
2018-02-03T21:09:16.439Z,0.90
2018-02-03T21:11:43.955Z,0.90
2018-02-03T21:14:11.496Z,1.00
2018-02-03T21:16:39.016Z,1.10
2018-02-03T21:19:06.513Z,1.00
2018-02-03T21:21:34.039Z,1.00
2018-02-03T21:24:02.309Z,0.80
2018-02-03T21:26:30.589Z,0.70
2018-02-03T21:28:58.864Z,0.60
2018-02-03T21:31:27.165Z,0.70
2018-02-03T21:33:54.681Z,0.70
2018-02-03T21:36:22.182Z,0.70
2018-02-03T21:38:49.719Z,0.60
2018-02-03T21:41:17.981Z,0.80
2018-02-03T21:43:45.520Z,0.80
2018-02-03T21:46:13.040Z,0.90
2018-02-03T21:48:40.538Z,0.90
2018-02-03T21:51:08.067Z,1.00
2018-02-03T21:53:35.588Z,1.10
2018-02-03T21:56:03.892Z,1.00
2018-02-03T21:58:31.390Z,1.00
2018-02-03T22:00:58.900Z,1.00
2018-02-03T22:03:26.480Z,0.90
2018-02-03T22:05:53.974Z,0.80
2018-02-03T22:08:21.495Z,0.70
2018-02-03T22:10:48.996Z,0.70
2018-02-03T22:13:16.523Z,0.70
2018-02-03T22:15:44.037Z,0.70
2018-02-03T22:18:12.323Z,0.70
2018-02-03T22:20:39.870Z,0.70
2018-02-03T22:23:08.151Z,0.70
2018-02-03T22:25:36.454Z,0.70
2018-02-03T22:28:03.958Z,0.60
2018-02-03T22:30:31.503Z,0.60
2018-02-03T22:32:59.026Z,0.60
2018-02-03T22:35:26.525Z,0.60
2018-02-03T22:37:54.060Z,0.70
2018-02-03T22:40:21.553Z,0.70
2018-02-03T22:42:49.054Z,0.90
2018-02-03T22:45:16.599Z,0.70
2018-02-03T22:47:44.109Z,0.50
2018-02-03T22:50:11.648Z,0.60
2018-02-03T22:52:39.142Z,0.50
2018-02-03T22:55:06.651Z,0.50
2018-02-03T22:57:34.197Z,0.40
2018-02-03T23:00:01.726Z,0.30
2018-02-03T23:02:34.939Z,0.30
2018-02-03T23:05:03.215Z,0.30
2018-02-03T23:07:31.497Z,0.30
2018-02-03T23:09:59.037Z,0.30
2018-02-03T23:12:27.312Z,0.30
2018-02-03T23:14:55.578Z,0.50
2018-02-03T23:17:23.107Z,0.50
2018-02-03T23:19:50.628Z,0.50
2018-02-03T23:22:18.145Z,0.40
2018-02-03T23:24:45.669Z,0.40
2018-02-03T23:27:13.169Z,0.40
2018-02-03T23:29:40.687Z,0.50
2018-02-03T23:32:08.196Z,0.50
2018-02-03T23:34:36.456Z,0.70
2018-02-03T23:37:03.997Z,0.70
2018-02-03T23:39:31.509Z,0.60
2018-02-03T23:41:59.043Z,0.70
2018-02-03T23:44:26.551Z,0.70
2018-02-03T23:46:54.062Z,0.70
2018-02-03T23:49:22.350Z,0.50
2018-02-03T23:51:50.619Z,0.40
2018-02-03T23:54:18.916Z,0.20
2018-02-03T23:56:46.414Z,0.20
2018-02-03T23:59:13.942Z,0.30
